Strona główna
METAR-TAF:

METAR-TAF

Lotnisko :

Le Touquet, Francja

Szerokość geograficzna: 50-30-53N, Długość geograficzna: 001-37-39E, wysokość: 6 m

Aktualna obserwacja pogody

Raport powstał 33 minut temu, godzina 18:00 UTC
Wiatr 5 kt od wschód
Temperatura 6°C
Wilgotność 81%
Ciśnienie 1027 hPa
Widzialność 10 km lub więcej
Zachmurzenie całkowite na wysokości 2100 ft

METAR: LFAT 231800Z AUTO 08005KT 9999 OVC021 06/03 Q1027 NOSIG

czas: 19:33 (18:33 UTC)

Prognoza

Raport powstał 4 godziny i 33 minut temu, godzina 14:00 UTC
Prognoza ważna od 23 godzina 15 UTC do 23 godzina 24 UTC
Wiatr 9 kt od wschodnio-północny wschód
Widzialność 10 km lub więcej
Przerywane chmury na wysokości 1700 ft

TAF: LFAT 231400Z 2315/2324 07009KT 9999 BKN017

Obserwacja i prognoza pogody dla ponad 4000 lotnisk (raport METAR i TAF).

Dostępne stacje oznaczono żółtymi i czerwonymi punktami na mapie.

Najedź kursorem aby zobaczyć nazwę stacji.

Kliknij aby zobaczyć obserwacje i prognozy pogody.

Aby zmienić mapę: kliknij na zielony przycisk z czarnym krzyżykiem, aby powiększyć; na zielony przycisk z myślnikiem, aby pomniejszyć; na zielone strzałki, aby przejść do map sąsiednich.


METAR-TAF: